PAA116 EDDH-KEWR
Flight info
| Callsign | PAA116 |
|---|---|
| Flight time | N/A |
| Altitude | 32000 |
| Route | WSN N125 PREXA DCT RAVLO Y70 OTBED L60 PENIL UL70 BAGSO DCT MOLAK DCT RESNO/M085F320 DCT 56N020W 56N030W 56N040W 55N050W DCT LOMSI/N0495F320 N668A TAFFY/N0490F360 DCT KJOHN DCT HANAA DCT ALB SHAFF7 |
| Aircraft | B742/H-SDFHIRWXY/L |
Departure
| Time | 2026-05-06 20:26 |
|---|---|
| Airport | Hamburg Helmut Schmidt Airport (EDDH) |
Arrival
| Time | N/A |
|---|---|
| Airport | Newark Liberty International Airport (KEWR) |
| Time | Latitude | Longitude | Altitude | Speed | Heading |
|---|---|---|---|---|---|
| 2026-05-06 19:55 | 53.63418 | 10.00333 | 44 ft | 0 kts | 101° |
| 2026-05-06 20:10 | 53.63420 | 10.00317 | 44 ft | 2 kts | 101° |
| 2026-05-06 20:10 | 53.63422 | 10.00291 | 44 ft | 2 kts | 101° |
| 2026-05-06 20:11 | 53.63425 | 10.00267 | 43 ft | 2 kts | 101° |
| 2026-05-06 20:11 | 53.63428 | 10.00242 | 43 ft | 2 kts | 107° |
| 2026-05-06 20:11 | 53.63435 | 10.00219 | 42 ft | 2 kts | 128° |
| 2026-05-06 20:11 | 53.63445 | 10.00201 | 42 ft | 2 kts | 144° |
| 2026-05-06 20:12 | 53.63458 | 10.00189 | 42 ft | 2 kts | 160° |
| 2026-05-06 20:12 | 53.63472 | 10.00184 | 42 ft | 1 kts | 175° |
| 2026-05-06 20:12 | 53.63477 | 10.00183 | 42 ft | 0 kts | 177° |
| 2026-05-06 20:17 | 53.63465 | 10.00184 | 42 ft | 4 kts | 177° |
| 2026-05-06 20:18 | 53.63419 | 10.00188 | 41 ft | 7 kts | 176° |
| 2026-05-06 20:18 | 53.63366 | 10.00194 | 40 ft | 7 kts | 176° |
| 2026-05-06 20:18 | 53.63312 | 10.00201 | 40 ft | 7 kts | 175° |
| 2026-05-06 20:18 | 53.63263 | 10.00207 | 39 ft | 7 kts | 175° |
| 2026-05-06 20:19 | 53.63206 | 10.00214 | 39 ft | 8 kts | 175° |
| 2026-05-06 20:19 | 53.63144 | 10.00223 | 38 ft | 8 kts | 175° |
| 2026-05-06 20:19 | 53.63089 | 10.00229 | 39 ft | 6 kts | 182° |
| 2026-05-06 20:19 | 53.63053 | 10.00211 | 39 ft | 4 kts | 214° |
| 2026-05-06 20:20 | 53.63023 | 10.00177 | 39 ft | 7 kts | 213° |
| 2026-05-06 20:20 | 53.62985 | 10.00135 | 39 ft | 0 kts | 213° |
| 2026-05-06 20:20 | 53.62974 | 10.00123 | 38 ft | 4 kts | 213° |
| 2026-05-06 20:20 | 53.62928 | 10.00077 | 37 ft | 10 kts | 208° |
| 2026-05-06 20:21 | 53.62839 | 10.00075 | 37 ft | 16 kts | 152° |
| 2026-05-06 20:21 | 53.62738 | 10.00165 | 41 ft | 14 kts | 152° |
| 2026-05-06 20:21 | 53.62663 | 10.00230 | 44 ft | 10 kts | 153° |
| 2026-05-06 20:21 | 53.62611 | 10.00274 | 45 ft | 3 kts | 170° |
| 2026-05-06 20:22 | 53.62591 | 10.00252 | 44 ft | 3 kts | 232° |
| 2026-05-06 20:22 | 53.62582 | 10.00231 | 44 ft | 0 kts | 234° |
| 2026-05-06 20:22 | 53.62582 | 10.00230 | 44 ft | 0 kts | 234° |
| 2026-05-06 20:22 | 53.62580 | 10.00226 | 44 ft | 2 kts | 234° |
| 2026-05-06 20:23 | 53.62564 | 10.00179 | 45 ft | 7 kts | 241° |
| 2026-05-06 20:23 | 53.62533 | 10.00084 | 45 ft | 8 kts | 241° |
| 2026-05-06 20:23 | 53.62531 | 10.00033 | 45 ft | 3 kts | 303° |
| 2026-05-06 20:23 | 53.62537 | 10.00024 | 45 ft | 0 kts | 332° |
| 2026-05-06 20:24 | 53.62546 | 10.00017 | 45 ft | 5 kts | 333° |
| 2026-05-06 20:25 | 53.62725 | 9.99868 | 38 ft | 55 kts | 334° |
| 2026-05-06 20:25 | 53.63226 | 9.99438 | 33 ft | 105 kts | 333° |
| 2026-05-06 20:25 | 53.64014 | 9.98755 | 42 ft | 148 kts | 333° |
| 2026-05-06 20:25 | 53.65033 | 9.97858 | 89 ft | 180 kts | 334° |
| 2026-05-06 20:26 | 53.66111 | 9.96861 | 534 ft | 175 kts | 334° |
| 2026-05-06 20:26 | 53.67170 | 9.95810 | 889 ft | 179 kts | 333° |
| 2026-05-06 20:26 | 53.68253 | 9.94711 | 1276 ft | 183 kts | 333° |
| 2026-05-06 20:26 | 53.69336 | 9.93582 | 1688 ft | 185 kts | 334° |
| 2026-05-06 20:27 | 53.70429 | 9.92419 | 2037 ft | 192 kts | 333° |
| 2026-05-06 20:27 | 53.71587 | 9.91176 | 2314 ft | 202 kts | 333° |
| 2026-05-06 20:27 | 53.72792 | 9.89897 | 2716 ft | 206 kts | 333° |
| 2026-05-06 20:27 | 53.74033 | 9.88589 | 3013 ft | 217 kts | 333° |
| 2026-05-06 20:28 | 53.75379 | 9.87211 | 3188 ft | 236 kts | 333° |
| 2026-05-06 20:28 | 53.76851 | 9.85737 | 3391 ft | 255 kts | 333° |
| 2026-05-06 20:28 | 53.78403 | 9.84186 | 3794 ft | 264 kts | 333° |
| 2026-05-06 20:28 | 53.80017 | 9.82573 | 4023 ft | 276 kts | 333° |
| 2026-05-06 20:29 | 53.81650 | 9.80958 | 4668 ft | 266 kts | 333° |
| 2026-05-06 20:29 | 53.83217 | 9.79421 | 5101 ft | 266 kts | 333° |
| 2026-05-06 20:29 | 53.84873 | 9.77942 | 5340 ft | 268 kts | 344° |
| 2026-05-06 20:29 | 53.86659 | 9.77474 | 5693 ft | 261 kts | 355° |
| 2026-05-06 20:30 | 53.88345 | 9.76267 | 5834 ft | 274 kts | 318° |
| 2026-05-06 20:30 | 53.89270 | 9.70229 | 6468 ft | 282 kts | 253° |
| 2026-05-06 20:30 | 53.88291 | 9.67314 | 6605 ft | 289 kts | 224° |
| 2026-05-06 20:31 | 53.86713 | 9.65240 | 6992 ft | 288 kts | 212° |
| 2026-05-06 20:31 | 53.85039 | 9.63372 | 7364 ft | 290 kts | 218° |
| 2026-05-06 20:31 | 53.83512 | 9.61143 | 7551 ft | 299 kts | 223° |
| 2026-05-06 20:31 | 53.81948 | 9.58685 | 7725 ft | 310 kts | 223° |
| 2026-05-06 20:32 | 53.80340 | 9.56199 | 7891 ft | 322 kts | 223° |
| 2026-05-06 20:32 | 53.78661 | 9.53640 | 8116 ft | 332 kts | 222° |
| 2026-05-06 20:32 | 53.76952 | 9.51053 | 8694 ft | 329 kts | 222° |
| 2026-05-06 20:32 | 53.75243 | 9.48475 | 9193 ft | 330 kts | 222° |
| 2026-05-06 20:33 | 53.73530 | 9.45894 | 9648 ft | 332 kts | 223° |
| 2026-05-06 20:33 | 53.71825 | 9.43329 | 10081 ft | 334 kts | 223° |
| 2026-05-06 20:33 | 53.70073 | 9.40694 | 10351 ft | 342 kts | 223° |
| 2026-05-06 20:33 | 53.68274 | 9.37992 | 10625 ft | 349 kts | 223° |
| 2026-05-06 20:34 | 53.66437 | 9.35235 | 10896 ft | 358 kts | 223° |
| 2026-05-06 20:34 | 53.64566 | 9.32431 | 11166 ft | 366 kts | 222° |
| 2026-05-06 20:34 | 53.62652 | 9.29565 | 11434 ft | 374 kts | 222° |
| 2026-05-06 20:34 | 53.60699 | 9.26643 | 11703 ft | 383 kts | 222° |
| 2026-05-06 20:35 | 53.58702 | 9.23659 | 11966 ft | 391 kts | 222° |
| 2026-05-06 20:35 | 53.56644 | 9.20589 | 12237 ft | 400 kts | 222° |
| 2026-05-06 20:35 | 53.54546 | 9.17462 | 12675 ft | 403 kts | 222° |
| 2026-05-06 20:35 | 53.52467 | 9.14372 | 13214 ft | 404 kts | 222° |
| 2026-05-06 20:36 | 53.50371 | 9.11257 | 13662 ft | 407 kts | 222° |
| 2026-05-06 20:36 | 53.48230 | 9.08082 | 14104 ft | 409 kts | 222° |
| 2026-05-06 20:36 | 53.46117 | 9.04951 | 14566 ft | 411 kts | 222° |
| 2026-05-06 20:36 | 53.43975 | 9.01783 | 15038 ft | 412 kts | 222° |
| 2026-05-06 20:37 | 53.41833 | 8.98618 | 15452 ft | 415 kts | 222° |
| 2026-05-06 20:37 | 53.39645 | 8.95391 | 15925 ft | 415 kts | 222° |
| 2026-05-06 20:37 | 53.37501 | 8.92222 | 16330 ft | 417 kts | 223° |
| 2026-05-06 20:37 | 53.35546 | 8.88621 | 16716 ft | 418 kts | 236° |
| 2026-05-06 20:38 | 53.34094 | 8.84476 | 17146 ft | 418 kts | 244° |
| 2026-05-06 20:38 | 53.32905 | 8.80032 | 17574 ft | 419 kts | 248° |
| 2026-05-06 20:38 | 53.31838 | 8.75494 | 17989 ft | 421 kts | 250° |
| 2026-05-06 20:38 | 53.30822 | 8.70951 | 18397 ft | 422 kts | 250° |
| 2026-05-06 20:39 | 53.29807 | 8.66339 | 18769 ft | 425 kts | 250° |
| 2026-05-06 20:39 | 53.28793 | 8.61703 | 19164 ft | 426 kts | 250° |
| 2026-05-06 20:39 | 53.27787 | 8.57110 | 19538 ft | 429 kts | 250° |
| 2026-05-06 20:39 | 53.26799 | 8.52427 | 19947 ft | 430 kts | 251° |
| 2026-05-06 20:40 | 53.25845 | 8.47665 | 20335 ft | 432 kts | 252° |
| 2026-05-06 20:40 | 53.24927 | 8.42942 | 20710 ft | 434 kts | 252° |
| 2026-05-06 20:40 | 53.24005 | 8.38126 | 21074 ft | 436 kts | 252° |
| 2026-05-06 20:40 | 53.23082 | 8.33282 | 21414 ft | 438 kts | 252° |
| 2026-05-06 20:41 | 53.22161 | 8.28452 | 21766 ft | 440 kts | 252° |
| 2026-05-06 20:41 | 53.21244 | 8.23641 | 22116 ft | 441 kts | 252° |
| 2026-05-06 20:41 | 53.20314 | 8.18775 | 22429 ft | 443 kts | 252° |
| 2026-05-06 20:41 | 53.19385 | 8.13907 | 22768 ft | 444 kts | 252° |
| 2026-05-06 20:42 | 53.18446 | 8.08962 | 23092 ft | 446 kts | 252° |